createdAt,value
2022-07-28T00:00:01.612Z,13.2
2022-07-28T00:01:02.177Z,13
2022-07-28T00:02:01.806Z,13
2022-07-28T00:03:01.360Z,13
2022-07-28T00:04:01.946Z,13
2022-07-28T00:05:01.529Z,13
2022-07-28T00:06:02.119Z,12.9
2022-07-28T00:07:01.699Z,12.9
2022-07-28T00:08:02.272Z,13
2022-07-28T00:09:01.860Z,12.9
2022-07-28T00:10:01.456Z,12.9
2022-07-28T00:11:02.044Z,12.9
2022-07-28T00:12:01.623Z,12.8
2022-07-28T00:13:02.204Z,12.8
2022-07-28T00:14:01.448Z,12.9
2022-07-28T00:15:02.028Z,12.9
2022-07-28T00:16:01.686Z,12.9
2022-07-28T00:17:02.213Z,12.9
2022-07-28T00:18:01.797Z,12.9
2022-07-28T00:19:01.379Z,12.9
2022-07-28T00:20:01.954Z,12.8
2022-07-28T00:21:01.533Z,12.8
2022-07-28T00:22:02.129Z,12.8
2022-07-28T00:23:01.710Z,12.8
2022-07-28T00:24:01.353Z,12.7
2022-07-28T00:25:01.883Z,12.9
2022-07-28T00:26:01.469Z,12.8
2022-07-28T00:27:02.065Z,12.7
2022-07-28T00:28:01.646Z,12.7
2022-07-28T00:29:02.243Z,12.7
2022-07-28T00:30:01.823Z,12.8
2022-07-28T00:31:05.076Z,12.7
2022-07-28T00:32:02.015Z,12.8
2022-07-28T00:33:01.637Z,12.7
2022-07-28T00:34:02.177Z,12.7
2022-07-28T00:35:02.394Z,12.8
2022-07-28T00:36:02.070Z,12.7
2022-07-28T00:37:01.649Z,12.7
2022-07-28T00:38:02.211Z,12.7
2022-07-28T00:39:01.791Z,12.8
2022-07-28T00:40:01.779Z,12.8
2022-07-28T00:41:01.356Z,12.8
2022-07-28T00:42:01.942Z,12.8
2022-07-28T00:43:01.546Z,12.8
2022-07-28T00:44:02.113Z,12.7
2022-07-28T00:45:01.771Z,12.7
2022-07-28T00:46:01.355Z,12.7
2022-07-28T00:47:01.992Z,12.7
2022-07-28T00:48:01.596Z,12.7
2022-07-28T00:49:02.208Z,12.7
2022-07-28T00:50:01.819Z,12.7
2022-07-28T00:51:01.398Z,12.7
2022-07-28T00:52:01.969Z,12.8
2022-07-28T00:53:01.559Z,12.8
2022-07-28T00:54:02.153Z,12.7
2022-07-28T00:55:01.732Z,12.7
2022-07-28T00:56:02.980Z,12.8
2022-07-28T00:57:01.854Z,12.7
2022-07-28T00:58:01.435Z,12.7
2022-07-28T00:59:02.030Z,12.7
2022-07-28T01:00:01.630Z,12.7
2022-07-28T01:01:02.187Z,12.7
2022-07-28T01:02:01.957Z,12.7
2022-07-28T01:03:01.409Z,12.7
2022-07-28T01:04:01.948Z,12.8
2022-07-28T01:05:01.557Z,12.7
2022-07-28T01:06:02.105Z,12.8
2022-07-28T01:07:01.685Z,12.8
2022-07-28T01:08:02.267Z,12.8
2022-07-28T01:09:01.935Z,12.8
2022-07-28T01:10:01.492Z,12.7
2022-07-28T01:11:02.063Z,12.7
2022-07-28T01:12:01.669Z,12.7
2022-07-28T01:13:02.242Z,12.7
2022-07-28T01:14:01.848Z,12.7
2022-07-28T01:15:01.438Z,12.7
2022-07-28T01:16:02.140Z,12.7
2022-07-28T01:17:01.670Z,12.7
2022-07-28T01:18:02.245Z,12.6
2022-07-28T01:19:01.840Z,12.6
2022-07-28T01:20:01.427Z,12.7
2022-07-28T01:21:02.016Z,12.6
2022-07-28T01:22:01.597Z,12.6
2022-07-28T01:23:02.175Z,12.6
2022-07-28T01:24:01.775Z,12.6
2022-07-28T01:25:01.381Z,12.6
2022-07-28T01:26:01.908Z,12.6
2022-07-28T01:27:01.488Z,12.5
2022-07-28T01:28:02.085Z,12.5
2022-07-28T01:29:01.681Z,12.5
2022-07-28T01:30:02.241Z,12.5
2022-07-28T01:31:01.874Z,12.4
2022-07-28T01:32:01.483Z,12.5
2022-07-28T01:33:02.081Z,12.5
2022-07-28T01:34:01.677Z,12.4
2022-07-28T01:35:04.077Z,12.4
2022-07-28T01:36:01.802Z,12.4
2022-07-28T01:37:01.381Z,12.4
2022-07-28T01:38:01.972Z,12.4
2022-07-28T01:39:01.557Z,12.4
2022-07-28T01:40:02.139Z,12.4
2022-07-28T01:41:01.736Z,12.4
2022-07-28T01:42:02.293Z,12.4
2022-07-28T01:43:01.873Z,12.4
2022-07-28T01:44:01.452Z,12.4
2022-07-28T01:45:02.048Z,12.3
2022-07-28T01:46:01.646Z,12.4
2022-07-28T01:47:02.214Z,12.4
2022-07-28T01:48:01.799Z,12.4
2022-07-28T01:49:01.477Z,12.3
2022-07-28T01:50:01.990Z,12.4
2022-07-28T01:51:01.607Z,12.3
2022-07-28T01:52:02.157Z,12.2
2022-07-28T01:53:01.739Z,12.2
2022-07-28T01:54:01.310Z,12.2
2022-07-28T01:55:01.883Z,12.2
2022-07-28T01:56:01.479Z,12.3
2022-07-28T01:57:02.048Z,12.2
2022-07-28T01:58:01.628Z,12.3
2022-07-28T01:59:02.208Z,12.1
2022-07-28T02:00:01.790Z,12.2
2022-07-28T02:01:01.392Z,12.3
2022-07-28T02:02:01.990Z,12.3
2022-07-28T02:03:01.598Z,12.4
2022-07-28T02:04:02.175Z,12.3
2022-07-28T02:05:01.804Z,12.3
2022-07-28T02:06:01.428Z,12.3
2022-07-28T02:07:01.986Z,12.3
2022-07-28T02:08:01.565Z,12.3
2022-07-28T02:09:02.147Z,12.3
2022-07-28T02:10:01.726Z,12.2
2022-07-28T02:11:02.318Z,12.2
2022-07-28T02:12:02.000Z,12.2
2022-07-28T02:13:01.543Z,12.3
2022-07-28T02:14:02.117Z,12.2
2022-07-28T02:15:01.693Z,12.2
2022-07-28T02:16:02.321Z,12.3
2022-07-28T02:17:01.954Z,12.2
2022-07-28T02:18:01.516Z,12.2
2022-07-28T02:19:02.079Z,12.2
2022-07-28T02:20:01.665Z,12.2
2022-07-28T02:21:02.239Z,12.2
2022-07-28T02:22:01.851Z,12.2
2022-07-28T02:23:01.446Z,12.2
2022-07-28T02:24:02.005Z,12.1
2022-07-28T02:25:01.583Z,12.2
2022-07-28T02:26:01.723Z,12.1
2022-07-28T02:27:01.310Z,12.1
2022-07-28T02:28:00.912Z,12
2022-07-28T02:29:01.492Z,12.1
2022-07-28T02:30:01.075Z,12
2022-07-28T02:31:01.702Z,12
2022-07-28T02:32:01.318Z,12
2022-07-28T02:33:01.353Z,12
2022-07-28T02:34:02.090Z,12
2022-07-28T02:35:00.938Z,12
2022-07-28T02:36:01.517Z,11.9
2022-07-28T02:37:00.805Z,12
2022-07-28T02:38:01.016Z,11.9
2022-07-28T02:39:01.609Z,11.8
2022-07-28T02:40:01.184Z,11.8
2022-07-28T02:41:00.758Z,11.9
2022-07-28T02:42:01.342Z,11.8
2022-07-28T02:43:00.943Z,11.8
2022-07-28T02:44:01.506Z,11.8
2022-07-28T02:45:01.084Z,11.8
2022-07-28T02:46:01.717Z,11.9
2022-07-28T02:47:01.332Z,11.9
2022-07-28T02:48:00.921Z,11.8
2022-07-28T02:49:01.537Z,11.8
2022-07-28T02:50:01.171Z,11.9
2022-07-28T02:51:00.730Z,11.8
2022-07-28T02:52:01.309Z,11.8
2022-07-28T02:53:00.914Z,11.7
2022-07-28T02:54:01.449Z,11.7
2022-07-28T02:55:01.050Z,11.8
2022-07-28T02:56:01.601Z,11.8
2022-07-28T02:57:01.182Z,11.7
2022-07-28T02:58:00.768Z,11.8
2022-07-28T02:59:01.311Z,11.7
2022-07-28T03:00:00.911Z,11.8
2022-07-28T03:01:01.491Z,11.8
2022-07-28T03:02:01.120Z,11.7
2022-07-28T03:03:01.702Z,11.8
2022-07-28T03:04:01.305Z,11.8
2022-07-28T03:05:00.948Z,11.8
2022-07-28T03:06:01.460Z,11.8
2022-07-28T03:07:01.039Z,11.8
2022-07-28T03:08:01.614Z,11.7
2022-07-28T03:09:01.202Z,11.8
2022-07-28T03:10:00.893Z,11.8
2022-07-28T03:11:01.363Z,11.8
2022-07-28T03:12:00.944Z,11.8
2022-07-28T03:13:01.527Z,11.7
2022-07-28T03:14:01.819Z,11.8
2022-07-28T03:15:01.645Z,11.8
2022-07-28T03:16:01.251Z,11.8
2022-07-28T03:17:00.892Z,11.8
2022-07-28T03:18:01.406Z,11.8
2022-07-28T03:19:00.984Z,11.8
2022-07-28T03:20:01.566Z,11.8
2022-07-28T03:21:01.166Z,11.7
2022-07-28T03:22:01.725Z,11.8
2022-07-28T03:23:01.311Z,11.7
2022-07-28T03:24:00.893Z,11.7
2022-07-28T03:25:01.473Z,11.7
2022-07-28T03:26:01.121Z,11.7
2022-07-28T03:27:01.632Z,11.8
2022-07-28T03:28:01.212Z,11.8
2022-07-28T03:29:00.794Z,11.8
2022-07-28T03:30:03.788Z,11.8
2022-07-28T03:31:00.962Z,11.7
2022-07-28T03:32:01.595Z,11.7
2022-07-28T03:33:01.174Z,11.7
2022-07-28T03:34:00.753Z,11.6
2022-07-28T03:35:01.335Z,11.5
2022-07-28T03:36:00.934Z,11.6
2022-07-28T03:37:01.490Z,11.6
2022-07-28T03:38:01.069Z,11.6
2022-07-28T03:39:01.646Z,11.6
2022-07-28T03:40:01.245Z,11.5
2022-07-28T03:41:00.798Z,11.5
2022-07-28T03:42:01.380Z,11.5
2022-07-28T03:43:00.977Z,11.4
2022-07-28T03:44:01.545Z,11.4
2022-07-28T03:45:01.128Z,11.4
2022-07-28T03:46:01.777Z,11.3
2022-07-28T03:47:01.422Z,11.3
2022-07-28T03:48:00.969Z,11.4
2022-07-28T03:49:01.599Z,11.4
2022-07-28T03:50:01.187Z,11.5
2022-07-28T03:51:00.789Z,11.5
2022-07-28T03:52:01.348Z,11.6
2022-07-28T03:53:00.929Z,11.6
2022-07-28T03:54:01.542Z,11.6
2022-07-28T03:55:01.121Z,11.6
2022-07-28T03:56:01.697Z,11.6
2022-07-28T03:57:01.274Z,11.6
2022-07-28T03:58:00.854Z,11.5
2022-07-28T03:59:01.448Z,11.5
2022-07-28T04:00:02.177Z,11.4
2022-07-28T04:01:01.605Z,11.6
2022-07-28T04:02:01.288Z,11.5
2022-07-28T04:03:00.802Z,11.5
2022-07-28T04:04:01.403Z,11.5
2022-07-28T04:05:01.006Z,11.5
2022-07-28T04:06:01.560Z,11.4
2022-07-28T04:07:01.140Z,11.6
2022-07-28T04:08:01.723Z,11.6
2022-07-28T04:09:01.332Z,11.6
2022-07-28T04:10:00.916Z,11.6
2022-07-28T04:11:01.497Z,11.8
2022-07-28T04:12:01.082Z,11.8
2022-07-28T04:13:01.660Z,11.8
2022-07-28T04:14:01.255Z,11.8
2022-07-28T04:15:00.834Z,11.8
2022-07-28T04:16:01.432Z,11.8
2022-07-28T04:17:01.054Z,11.8
2022-07-28T04:18:01.594Z,12
2022-07-28T04:19:01.172Z,11.9
2022-07-28T04:20:00.773Z,12
2022-07-28T04:21:01.335Z,12
2022-07-28T04:22:00.986Z,12.1
2022-07-28T04:23:01.569Z,12.1
2022-07-28T04:24:13.002Z,12.1
2022-07-28T04:25:01.709Z,12.1
2022-07-28T04:26:01.293Z,12.2
2022-07-28T04:27:00.944Z,12.2
2022-07-28T04:28:01.460Z,12.3
2022-07-28T04:29:03.165Z,12.5
2022-07-28T04:30:01.541Z,12.4
2022-07-28T04:31:01.200Z,12.6
2022-07-28T04:32:00.844Z,12.6
2022-07-28T04:33:01.407Z,12.6
2022-07-28T04:34:00.989Z,12.6
2022-07-28T04:35:01.559Z,12.7
2022-07-28T04:36:01.165Z,12.7
2022-07-28T04:37:01.757Z,12.8
2022-07-28T04:38:01.357Z,12.8
2022-07-28T04:39:00.947Z,12.9
2022-07-28T04:40:01.526Z,13
2022-07-28T04:41:01.136Z,13
2022-07-28T04:42:01.680Z,13
2022-07-28T04:43:01.321Z,13.1
2022-07-28T04:44:00.925Z,13.1
2022-07-28T04:45:01.508Z,13.2
2022-07-28T04:46:01.196Z,13.2
2022-07-28T04:47:01.660Z,13.2
2022-07-28T04:48:01.235Z,13.3
2022-07-28T04:49:00.898Z,13.1
2022-07-28T04:50:01.402Z,13.1
2022-07-28T04:51:01.017Z,13.1
2022-07-28T04:52:01.592Z,13.2
2022-07-28T04:53:01.215Z,13.3
2022-07-28T04:54:00.774Z,13.3
2022-07-28T04:55:01.356Z,13.3
2022-07-28T04:56:00.942Z,13.4
2022-07-28T04:57:01.010Z,13.4
2022-07-28T04:58:01.569Z,13.4
2022-07-28T04:59:01.658Z,13.3
2022-07-28T05:00:01.197Z,13.4
2022-07-28T05:01:00.802Z,13.3
2022-07-28T05:02:01.368Z,13.3
2022-07-28T05:03:00.973Z,13.1
2022-07-28T05:04:01.572Z,13
2022-07-28T05:05:01.233Z,13
2022-07-28T05:06:01.737Z,13.1
2022-07-28T05:07:01.320Z,12.9
2022-07-28T05:08:00.879Z,13
2022-07-28T05:09:01.460Z,13.1
2022-07-28T05:10:01.039Z,13
2022-07-28T05:11:01.616Z,13
2022-07-28T05:12:01.219Z,13
2022-07-28T05:13:00.787Z,12.9
2022-07-28T05:14:01.365Z,12.9
2022-07-28T05:15:00.949Z,13
2022-07-28T05:16:01.558Z,13
2022-07-28T05:17:01.198Z,13.1
2022-07-28T05:18:01.733Z,12.9
2022-07-28T05:19:01.335Z,12.9
2022-07-28T05:20:00.921Z,12.9
2022-07-28T05:21:01.461Z,12.9
2022-07-28T05:22:01.039Z,12.9
2022-07-28T05:23:01.619Z,12.8
2022-07-28T05:24:01.222Z,12.9
2022-07-28T05:25:00.785Z,13.1
2022-07-28T05:26:01.368Z,13.1
2022-07-28T05:27:00.956Z,13.1
2022-07-28T05:28:01.583Z,13.1
2022-07-28T05:29:01.182Z,13.1
2022-07-28T05:30:01.739Z,13.2
2022-07-28T05:31:01.340Z,13.1
2022-07-28T05:32:03.996Z,13.2
2022-07-28T05:33:01.462Z,13.3
2022-07-28T05:34:01.041Z,13.5
2022-07-28T05:35:01.619Z,13.6
2022-07-28T05:36:01.212Z,13.7
2022-07-28T05:37:00.782Z,13.8
2022-07-28T05:38:01.282Z,13.6
2022-07-28T05:39:00.865Z,13.7
2022-07-28T05:40:01.443Z,13.8
2022-07-28T05:41:01.054Z,13.9
2022-07-28T05:42:01.595Z,13.9
2022-07-28T05:43:01.174Z,14
2022-07-28T05:44:01.754Z,14.1
2022-07-28T05:45:01.335Z,14.3
2022-07-28T05:46:00.985Z,14.4
2022-07-28T05:47:00.985Z,14.6
2022-07-28T05:48:01.583Z,14.8
2022-07-28T05:49:01.800Z,14.8
2022-07-28T05:50:01.404Z,14.8
2022-07-28T05:51:00.987Z,14.9
2022-07-28T05:52:01.588Z,14.9
2022-07-28T05:53:01.190Z,14.9
2022-07-28T05:54:01.752Z,14.9
2022-07-28T05:55:01.333Z,14.9
2022-07-28T05:56:01.794Z,15
2022-07-28T05:57:01.556Z,14.9
2022-07-28T05:58:01.167Z,14.9
2022-07-28T05:59:01.713Z,15
2022-07-28T06:00:01.295Z,14.9
2022-07-28T06:01:01.036Z,15
2022-07-28T06:02:01.501Z,14.8
2022-07-28T06:03:01.131Z,14.9
2022-07-28T06:04:25.942Z,15
2022-07-28T06:05:01.244Z,15
2022-07-28T06:06:15.439Z,14.9
2022-07-28T06:07:01.363Z,14.9
2022-07-28T06:08:00.961Z,14.9
2022-07-28T06:09:01.551Z,14.9
2022-07-28T06:10:01.137Z,15
2022-07-28T06:11:01.020Z,15.1
2022-07-28T06:12:01.292Z,15.1
2022-07-28T06:13:00.872Z,14.9
2022-07-28T06:14:01.467Z,15
2022-07-28T06:15:01.053Z,14.9
2022-07-28T06:16:01.675Z,14.9
2022-07-28T06:17:01.329Z,15
2022-07-28T06:18:01.464Z,15.2
2022-07-28T06:19:01.066Z,15.2
2022-07-28T06:20:01.666Z,15.1
2022-07-28T06:21:01.251Z,15.2
2022-07-28T06:22:00.828Z,15.3
2022-07-28T06:23:01.406Z,15.1
2022-07-28T06:24:01.009Z,15.2
2022-07-28T06:25:01.579Z,15.2
2022-07-28T06:26:01.186Z,15.2
2022-07-28T06:27:01.741Z,15.2
2022-07-28T06:28:01.319Z,15.2
2022-07-28T06:29:00.937Z,15.1
2022-07-28T06:30:01.498Z,15.1
2022-07-28T06:31:01.080Z,15.2
2022-07-28T06:32:01.698Z,15.1
2022-07-28T06:33:01.351Z,15.2
2022-07-28T06:34:00.903Z,15.3
2022-07-28T06:35:01.500Z,15.5
2022-07-28T06:36:01.083Z,15.4
2022-07-28T06:37:01.664Z,15.3
2022-07-28T06:38:01.243Z,15.3
2022-07-28T06:39:00.850Z,15.4
2022-07-28T06:40:01.426Z,15.4
2022-07-28T06:41:01.007Z,15.5
2022-07-28T06:42:01.586Z,15.8
2022-07-28T06:43:01.168Z,16
2022-07-28T06:44:01.749Z,15.9
2022-07-28T06:45:01.363Z,16
2022-07-28T06:46:00.943Z,15.8
2022-07-28T06:47:01.576Z,15.8
2022-07-28T06:48:01.171Z,16
2022-07-28T06:49:01.845Z,16
2022-07-28T06:50:01.519Z,16
2022-07-28T06:51:01.001Z,16
2022-07-28T06:52:01.579Z,16.2
2022-07-28T06:53:01.159Z,16
2022-07-28T06:54:01.747Z,16.2
2022-07-28T06:55:02.205Z,16.1
2022-07-28T06:56:00.891Z,16.1
2022-07-28T06:57:01.471Z,15.9
2022-07-28T06:58:01.049Z,15.9
2022-07-28T06:59:01.629Z,16.1
2022-07-28T07:00:01.231Z,16
2022-07-28T07:01:00.842Z,16.3
2022-07-28T07:02:01.400Z,16.3
2022-07-28T07:03:01.341Z,16.3
2022-07-28T07:04:01.227Z,16.3
2022-07-28T07:05:00.846Z,16.3
2022-07-28T07:06:01.425Z,16.1
2022-07-28T07:07:01.022Z,16.1
2022-07-28T07:08:01.156Z,16
2022-07-28T07:09:01.738Z,16.1
2022-07-28T07:10:01.328Z,16.2
2022-07-28T07:11:00.912Z,16.2
2022-07-28T07:12:01.524Z,16.3
2022-07-28T07:13:01.661Z,16.4
2022-07-28T07:14:02.676Z,16.5
2022-07-28T07:15:01.394Z,16.5
2022-07-28T07:16:01.048Z,16.5
2022-07-28T07:17:01.678Z,16.6
2022-07-28T07:18:01.280Z,16.7
2022-07-28T07:19:00.840Z,16.8
2022-07-28T07:20:01.379Z,16.7
2022-07-28T07:21:00.962Z,16.7
2022-07-28T07:22:01.547Z,16.7
2022-07-28T07:23:01.149Z,16.8
2022-07-28T07:24:01.724Z,16.7
2022-07-28T07:25:01.306Z,16.7
2022-07-28T07:26:00.893Z,16.8
2022-07-28T07:27:01.473Z,16.8
2022-07-28T07:28:01.070Z,16.9
2022-07-28T07:29:01.721Z,16.9
2022-07-28T07:30:01.297Z,16.8
2022-07-28T07:31:00.905Z,17.1
2022-07-28T07:32:02.401Z,17
2022-07-28T07:33:00.994Z,17
2022-07-28T07:34:01.596Z,17.3
2022-07-28T07:35:01.180Z,17.3
2022-07-28T07:36:01.759Z,17.3
2022-07-28T07:37:01.341Z,17.4
2022-07-28T07:38:00.920Z,17.4
2022-07-28T07:39:01.522Z,17.4
2022-07-28T07:40:01.113Z,17.1
2022-07-28T07:41:01.712Z,17.2
2022-07-28T07:42:01.290Z,17.3
2022-07-28T07:43:00.868Z,17.2
2022-07-28T07:44:01.447Z,17.1
2022-07-28T07:45:01.031Z,17.1
2022-07-28T07:46:01.658Z,17.1
2022-07-28T07:47:01.295Z,17.1
2022-07-28T07:48:00.815Z,17.2
2022-07-28T07:49:01.436Z,17.4
2022-07-28T07:50:04.054Z,17.6
2022-07-28T07:51:01.612Z,17.7
2022-07-28T07:52:01.215Z,17.7
2022-07-28T07:53:01.777Z,17.7
2022-07-28T07:54:01.362Z,17.6
2022-07-28T07:55:00.942Z,17.7
2022-07-28T07:56:01.520Z,17.8
2022-07-28T07:57:01.132Z,17.7
2022-07-28T07:58:01.690Z,17.8
2022-07-28T07:59:01.270Z,17.8
2022-07-28T08:00:00.851Z,17.6
2022-07-28T08:01:01.431Z,17.5
2022-07-28T08:02:01.091Z,17.3
2022-07-28T08:03:01.595Z,17.4
2022-07-28T08:04:01.299Z,17.4
2022-07-28T08:05:01.731Z,17.6
2022-07-28T08:06:01.363Z,17.5
2022-07-28T08:07:00.962Z,17.3
2022-07-28T08:08:01.514Z,17.3
2022-07-28T08:09:01.098Z,17.5
2022-07-28T08:10:01.678Z,17.6
2022-07-28T08:11:01.258Z,17.8
2022-07-28T08:12:00.814Z,17.9
2022-07-28T08:13:01.405Z,18.1
2022-07-28T08:14:00.984Z,18.3
2022-07-28T08:15:01.565Z,18.2
2022-07-28T08:16:01.190Z,18.1
2022-07-28T08:17:01.731Z,18.1
2022-07-28T08:18:01.317Z,18
2022-07-28T08:19:00.898Z,18.1
2022-07-28T08:20:01.482Z,18
2022-07-28T08:21:01.085Z,18
2022-07-28T08:22:01.647Z,18.1
2022-07-28T08:23:01.241Z,18
2022-07-28T08:24:00.812Z,18
2022-07-28T08:25:01.399Z,18.1
2022-07-28T08:26:00.987Z,18.2
2022-07-28T08:27:01.568Z,18.2
2022-07-28T08:28:01.167Z,18.1
2022-07-28T08:29:01.733Z,18.1
2022-07-28T08:30:01.341Z,18.2
2022-07-28T08:31:00.975Z,18.3
2022-07-28T08:32:01.507Z,18.3
2022-07-28T08:33:01.104Z,18.2
2022-07-28T08:34:01.668Z,18.3
2022-07-28T08:35:30.182Z,18.5
2022-07-28T08:36:01.786Z,18.4
2022-07-28T08:37:01.366Z,18.4
2022-07-28T08:38:00.964Z,18.3
2022-07-28T08:39:01.531Z,18.4
2022-07-28T08:40:01.112Z,18.6
2022-07-28T08:41:01.691Z,18.5
2022-07-28T08:42:01.278Z,18.6
2022-07-28T08:43:00.876Z,18.6
2022-07-28T08:44:01.435Z,18.8
2022-07-28T08:45:01.259Z,18.9
2022-07-28T08:46:01.521Z,19.1
2022-07-28T08:47:01.201Z,18.9
2022-07-28T08:48:09.748Z,19
2022-07-28T08:49:01.357Z,19
2022-07-28T08:50:00.984Z,19.2
2022-07-28T08:51:01.540Z,19.2
2022-07-28T08:52:01.117Z,19
2022-07-28T08:53:01.695Z,19.1
2022-07-28T08:54:01.272Z,19
2022-07-28T08:55:00.870Z,19.1
2022-07-28T08:56:01.430Z,19.1
2022-07-28T08:57:01.005Z,19.2
2022-07-28T08:58:01.597Z,19.3
2022-07-28T08:59:01.202Z,19.1
2022-07-28T09:00:01.772Z,19.1
2022-07-28T09:01:01.349Z,18.9
2022-07-28T09:02:00.964Z,18.9
2022-07-28T09:03:01.604Z,19.4
2022-07-28T09:04:01.191Z,19.4
2022-07-28T09:05:01.783Z,19.5
2022-07-28T09:06:01.365Z,19.3
2022-07-28T09:07:00.949Z,19.6
2022-07-28T09:08:01.534Z,19.7
2022-07-28T09:09:01.130Z,19.6
2022-07-28T09:10:02.637Z,19.7
2022-07-28T09:11:01.601Z,19.6
2022-07-28T09:12:00.946Z,19.3
2022-07-28T09:13:01.518Z,19
2022-07-28T09:14:01.107Z,19.3
2022-07-28T09:15:01.688Z,19.3
2022-07-28T09:16:01.371Z,19.2
2022-07-28T09:17:00.848Z,19.2
2022-07-28T09:18:01.426Z,19.4
2022-07-28T09:19:01.004Z,19.4
2022-07-28T09:20:01.588Z,19.3
2022-07-28T09:21:01.198Z,19.3
2022-07-28T09:22:01.765Z,19.6
2022-07-28T09:23:01.345Z,19.7
2022-07-28T09:24:00.941Z,19.8
2022-07-28T09:25:01.517Z,19.9
2022-07-28T09:26:01.118Z,19.8
2022-07-28T09:27:01.695Z,19.9
2022-07-28T09:28:01.274Z,20.1
2022-07-28T09:29:00.846Z,20.2
2022-07-28T09:30:01.433Z,20.3
2022-07-28T09:31:01.073Z,20.3
2022-07-28T09:32:01.654Z,20.5
2022-07-28T09:33:00.863Z,20.7
2022-07-28T09:34:01.458Z,20.2
2022-07-28T09:35:01.058Z,20.2
2022-07-28T09:36:02.177Z,20.2
2022-07-28T09:37:01.429Z,20.2
2022-07-28T09:38:00.874Z,20.3
2022-07-28T09:39:01.451Z,20.4
2022-07-28T09:40:02.306Z,20.3
2022-07-28T09:41:01.574Z,20.3
2022-07-28T09:42:01.176Z,20.3
2022-07-28T09:43:01.739Z,20.6
2022-07-28T09:44:01.318Z,20.5
2022-07-28T09:45:21.626Z,20.7
2022-07-28T09:46:01.491Z,20.7
2022-07-28T09:47:01.249Z,20.6
2022-07-28T09:48:01.830Z,20.7
2022-07-28T09:49:01.607Z,20.7
2022-07-28T09:50:00.992Z,20.5
2022-07-28T09:51:01.490Z,20.5
2022-07-28T09:52:01.091Z,20.5
2022-07-28T09:53:01.653Z,20.6
2022-07-28T09:54:01.251Z,20.3
2022-07-28T09:55:01.814Z,20.4
2022-07-28T09:56:01.391Z,20.5
2022-07-28T09:57:00.968Z,20.4
2022-07-28T09:58:01.545Z,20.3
2022-07-28T09:59:01.822Z,20.5
2022-07-28T10:00:01.474Z,20.4
2022-07-28T10:01:00.821Z,20.5
2022-07-28T10:02:01.619Z,20.5
2022-07-28T10:03:01.766Z,20.3
2022-07-28T10:04:02.888Z,20.6
2022-07-28T10:05:00.840Z,20.7
2022-07-28T10:06:01.421Z,20.6
2022-07-28T10:07:01.001Z,20.6
2022-07-28T10:08:01.579Z,20.4
2022-07-28T10:09:01.158Z,20.7
2022-07-28T10:10:01.756Z,20.9
2022-07-28T10:11:01.335Z,21.1
2022-07-28T10:12:00.915Z,21.2
2022-07-28T10:13:01.498Z,21.4
2022-07-28T10:14:01.077Z,21.6
2022-07-28T10:15:01.669Z,21.1
2022-07-28T10:16:01.254Z,21.3
2022-07-28T10:17:05.729Z,21.3
2022-07-28T10:18:01.387Z,21.3
2022-07-28T10:19:00.966Z,21.4
2022-07-28T10:20:01.581Z,21.3
2022-07-28T10:21:01.168Z,21.5
2022-07-28T10:22:01.748Z,21.5
2022-07-28T10:23:01.331Z,21.2
2022-07-28T10:24:00.910Z,21.1
2022-07-28T10:25:01.507Z,21.3
2022-07-28T10:26:01.088Z,21.3
2022-07-28T10:27:01.691Z,21.7
2022-07-28T10:28:01.267Z,21.7
2022-07-28T10:29:00.843Z,21.3
2022-07-28T10:30:01.440Z,21.2
2022-07-28T10:31:01.031Z,21.1
2022-07-28T10:32:01.653Z,21.2
2022-07-28T10:33:01.232Z,21.3
2022-07-28T10:34:01.811Z,21.2
2022-07-28T10:35:01.409Z,21.6
2022-07-28T10:36:01.007Z,21.8
2022-07-28T10:37:01.595Z,21.9
2022-07-28T10:38:01.188Z,21.7
2022-07-28T10:39:01.770Z,21.8
2022-07-28T10:40:03.298Z,21.8
2022-07-28T10:41:00.888Z,21.6
2022-07-28T10:42:01.483Z,21.7
2022-07-28T10:43:01.063Z,21.8
2022-07-28T10:44:01.642Z,21.6
2022-07-28T10:45:01.398Z,21.5
2022-07-28T10:46:05.905Z,21.4
2022-07-28T10:47:01.523Z,21.5
2022-07-28T10:48:01.130Z,21.6
2022-07-28T10:49:03.606Z,21.6
2022-07-28T10:50:01.253Z,21.3
2022-07-28T10:51:00.840Z,21.6
2022-07-28T10:52:06.608Z,21.7
2022-07-28T10:53:00.980Z,21.7
2022-07-28T10:54:01.563Z,22
2022-07-28T10:55:01.147Z,21.8
2022-07-28T10:56:01.731Z,21.8
2022-07-28T10:57:04.673Z,21.9
2022-07-28T10:58:01.824Z,22
2022-07-28T10:59:04.629Z,21.9
2022-07-28T11:00:08.603Z,21.8
2022-07-28T11:01:05.391Z,22
2022-07-28T11:02:01.136Z,22.2
2022-07-28T11:03:01.087Z,22
2022-07-28T11:04:01.474Z,22
2022-07-28T11:05:01.077Z,22
2022-07-28T11:06:01.658Z,21.9
2022-07-28T11:07:01.290Z,21.8
2022-07-28T11:08:01.821Z,21.8
2022-07-28T11:09:01.402Z,22.1
2022-07-28T11:10:00.979Z,22.1
2022-07-28T11:11:05.580Z,22.4
2022-07-28T11:12:01.112Z,22.6
2022-07-28T11:13:01.711Z,22.6
2022-07-28T11:14:01.250Z,22.4
2022-07-28T11:15:15.570Z,21.8
2022-07-28T11:16:01.374Z,21.8
2022-07-28T11:17:01.083Z,21.9
2022-07-28T11:18:01.565Z,22.1
2022-07-28T11:19:01.168Z,22.4
2022-07-28T11:20:26.945Z,22.5
2022-07-28T11:21:01.246Z,22.4
2022-07-28T11:22:01.854Z,22.3
2022-07-28T11:23:01.438Z,22.2
2022-07-28T11:24:01.030Z,22.2
2022-07-28T11:25:17.804Z,22.6
2022-07-28T11:26:00.905Z,23
2022-07-28T11:27:04.095Z,22.8
2022-07-28T11:28:01.042Z,22.8
2022-07-28T11:29:01.622Z,22.5
2022-07-28T11:30:01.200Z,22.4
2022-07-28T11:31:01.835Z,22.5
2022-07-28T11:32:01.460Z,22.6
2022-07-28T11:33:01.114Z,22.8
2022-07-28T11:34:01.615Z,22.8
2022-07-28T11:35:01.214Z,23.1
2022-07-28T11:36:02.181Z,23.2
2022-07-28T11:37:00.938Z,23.3
2022-07-28T11:38:01.792Z,23.2
2022-07-28T11:39:01.540Z,23.4
2022-07-28T11:40:01.140Z,23.3
2022-07-28T11:41:01.707Z,23.7
2022-07-28T11:42:01.291Z,23
2022-07-28T11:43:00.875Z,22.8
2022-07-28T11:44:01.194Z,22.7
2022-07-28T11:45:01.796Z,23.1
2022-07-28T11:46:01.459Z,23.4
2022-07-28T11:47:01.020Z,23.3
2022-07-28T11:48:01.598Z,23.1
2022-07-28T11:49:01.208Z,22.8
2022-07-28T11:50:01.784Z,23
2022-07-28T11:51:01.362Z,22.9
2022-07-28T11:52:00.943Z,22.7
2022-07-28T11:53:01.141Z,22.9
2022-07-28T11:54:01.722Z,22.9
2022-07-28T11:55:01.323Z,23
2022-07-28T11:56:02.673Z,22.9
2022-07-28T11:57:01.429Z,22.8
2022-07-28T11:58:01.007Z,22.9
2022-07-28T11:59:01.586Z,22.8
2022-07-28T12:00:01.196Z,22.6
2022-07-28T12:01:01.749Z,22.8
2022-07-28T12:02:01.434Z,23.1
2022-07-28T12:03:00.913Z,23.4
2022-07-28T12:04:01.497Z,23.3
2022-07-28T12:05:01.139Z,23
2022-07-28T12:06:01.629Z,23
2022-07-28T12:07:01.211Z,23.1
2022-07-28T12:08:01.797Z,23.3
2022-07-28T12:09:01.379Z,23.3
2022-07-28T12:10:00.979Z,23.3
2022-07-28T12:11:01.543Z,23.4
2022-07-28T12:12:01.142Z,23.2
2022-07-28T12:13:01.710Z,23.1
2022-07-28T12:14:01.289Z,23
2022-07-28T12:15:04.880Z,23.1
2022-07-28T12:16:01.409Z,23.2
2022-07-28T12:17:01.056Z,23.3
2022-07-28T12:18:01.572Z,23.4
2022-07-28T12:19:01.785Z,23.5
2022-07-28T12:20:01.496Z,23.5
2022-07-28T12:21:05.039Z,23.5
2022-07-28T12:22:01.032Z,23.9
2022-07-28T12:23:01.613Z,23.5
2022-07-28T12:24:01.198Z,23.4
2022-07-28T12:25:00.886Z,23.3
2022-07-28T12:26:01.361Z,23.3
2022-07-28T12:27:00.882Z,23.3
2022-07-28T12:28:02.202Z,23.5
2022-07-28T12:29:01.189Z,23.3
2022-07-28T12:30:01.797Z,23.6
2022-07-28T12:31:01.377Z,23.7
2022-07-28T12:32:01.892Z,23.7
2022-07-28T12:33:01.533Z,24.2
2022-07-28T12:34:01.149Z,24.5
2022-07-28T12:35:01.700Z,24.2
2022-07-28T12:36:01.286Z,23.8
2022-07-28T12:37:00.884Z,23.9
2022-07-28T12:38:01.470Z,23.9
2022-07-28T12:39:01.049Z,23.8
2022-07-28T12:40:01.631Z,23.8
2022-07-28T12:41:01.213Z,23.9
2022-07-28T12:42:01.812Z,24.1
2022-07-28T12:43:01.410Z,24.1
2022-07-28T12:44:00.996Z,24.1
2022-07-28T12:45:01.538Z,23.9
2022-07-28T12:46:01.213Z,23.9
2022-07-28T12:47:01.709Z,24
2022-07-28T12:48:01.314Z,23.9
2022-07-28T12:49:00.929Z,24.1
2022-07-28T12:50:06.557Z,24.1
2022-07-28T12:51:01.003Z,24.2
2022-07-28T12:52:01.581Z,24.3
2022-07-28T12:53:01.181Z,24.1
2022-07-28T12:54:01.755Z,24.1
2022-07-28T12:55:01.336Z,23.9
2022-07-28T12:56:00.916Z,23.8
2022-07-28T12:57:01.577Z,23.8
2022-07-28T12:58:01.156Z,23.7
2022-07-28T12:59:01.758Z,23.8
2022-07-28T13:00:01.338Z,23.8
2022-07-28T13:01:00.984Z,23.4
2022-07-28T13:02:01.517Z,23.7
2022-07-28T13:03:01.139Z,23.8
2022-07-28T13:04:01.737Z,23.8
2022-07-28T13:05:01.322Z,24
2022-07-28T13:06:00.901Z,24
2022-07-28T13:07:01.481Z,24
2022-07-28T13:08:02.094Z,24
2022-07-28T13:09:00.896Z,24.1
2022-07-28T13:10:01.490Z,24.3
2022-07-28T13:11:00.870Z,24.3
2022-07-28T13:12:01.451Z,24.2
2022-07-28T13:13:01.028Z,24.5
2022-07-28T13:14:01.630Z,24.4
2022-07-28T13:15:01.219Z,24.8
2022-07-28T13:16:01.891Z,24.7
2022-07-28T13:17:01.577Z,24.7
2022-07-28T13:18:01.043Z,24.7
2022-07-28T13:19:01.644Z,25.2
2022-07-28T13:20:01.242Z,25.3
2022-07-28T13:21:01.804Z,25.1
2022-07-28T13:22:04.183Z,25.1
2022-07-28T13:23:00.929Z,25.2